sensor_id;sensor_type;location;lat;lon;timestamp;pressure;altitude;pressure_sealevel;temperature;humidity
64862;BME280;62652;42.274;-71.436;2023-02-17T00:00:00;100580.0;;;12.611111111111112;79.7
64862;BME280;62652;42.274;-71.436;2023-02-17T00:01:01;100580.0;;;12.722222222222221;81.7
64862;BME280;62652;42.274;-71.436;2023-02-17T00:02:03;100580.0;;;12.5;77.5
64862;BME280;62652;42.274;-71.436;2023-02-17T00:03:01;100580.0;;;12.388888888888888;78.8
64862;BME280;62652;42.274;-71.436;2023-02-17T00:04:01;100570.0;;;12.388888888888888;82.4
64862;BME280;62652;42.274;-71.436;2023-02-17T00:05:00;100580.0;;;12.5;86.8
64862;BME280;62652;42.274;-71.436;2023-02-17T00:06:05;100580.0;;;12.611111111111112;88.0
64862;BME280;62652;42.274;-71.436;2023-02-17T00:07:00;100580.0;;;12.611111111111112;88.3
64862;BME280;62652;42.274;-71.436;2023-02-17T00:08:01;100570.0;;;12.611111111111112;88.6
64862;BME280;62652;42.274;-71.436;2023-02-17T00:09:01;100570.0;;;12.5;91.5
64862;BME280;62652;42.274;-71.436;2023-02-17T00:10:00;100570.0;;;12.388888888888888;94.0
64862;BME280;62652;42.274;-71.436;2023-02-17T00:11:01;100570.0;;;12.222222222222221;97.3
64862;BME280;62652;42.274;-71.436;2023-02-17T00:12:01;100570.0;;;12.111111111111109;99.4
64862;BME280;62652;42.274;-71.436;2023-02-17T00:13:01;100570.0;;;11.777777777777779;100.0
64862;BME280;62652;42.274;-71.436;2023-02-17T00:14:00;100570.0;;;11.777777777777779;100.0
64862;BME280;62652;42.274;-71.436;2023-02-17T00:15:01;100570.0;;;11.777777777777779;99.9
64862;BME280;62652;42.274;-71.436;2023-02-17T00:16:04;100560.0;;;11.88888888888889;100.0
64862;BME280;62652;42.274;-71.436;2023-02-17T00:17:01;100570.0;;;11.61111111111111;100.0
64862;BME280;62652;42.274;-71.436;2023-02-17T00:18:00;100560.0;;;11.777777777777779;100.0
64862;BME280;62652;42.274;-71.436;2023-02-17T00:19:01;100560.0;;;11.777777777777779;100.0
64862;BME280;62652;42.274;-71.436;2023-02-17T00:20:01;100560.0;;;11.722222222222221;100.0
64862;BME280;62652;42.274;-71.436;2023-02-17T00:21:10;100560.0;;;11.777777777777779;100.0
64862;BME280;62652;42.274;-71.436;2023-02-17T00:22:01;100560.0;;;11.777777777777779;100.0
64862;BME280;62652;42.274;-71.436;2023-02-17T00:23:00;100560.0;;;11.777777777777779;100.0
64862;BME280;62652;42.274;-71.436;2023-02-17T00:24:01;100560.0;;;11.777777777777779;100.0
64862;BME280;62652;42.274;-71.436;2023-02-17T00:25:01;100570.0;;;11.61111111111111;100.0
64862;BME280;62652;42.274;-71.436;2023-02-17T00:26:03;100560.0;;;11.500000000000002;100.0
64862;BME280;62652;42.274;-71.436;2023-02-17T00:27:00;100560.0;;;11.61111111111111;100.0
64862;BME280;62652;42.274;-71.436;2023-02-17T00:28:01;100560.0;;;11.61111111111111;100.0
64862;BME280;62652;42.274;-71.436;2023-02-17T00:29:00;100560.0;;;11.61111111111111;100.0
64862;BME280;62652;42.274;-71.436;2023-02-17T00:30:01;100560.0;;;11.500000000000002;100.0
64862;BME280;62652;42.274;-71.436;2023-02-17T00:31:05;100560.0;;;11.500000000000002;100.0
64862;BME280;62652;42.274;-71.436;2023-02-17T00:32:01;100560.0;;;11.61111111111111;100.0
64862;BME280;62652;42.274;-71.436;2023-02-17T00:33:00;100560.0;;;11.61111111111111;100.0
64862;BME280;62652;42.274;-71.436;2023-02-17T00:34:00;100560.0;;;11.61111111111111;100.0
64862;BME280;62652;42.274;-71.436;2023-02-17T00:35:01;100560.0;;;11.722222222222221;100.0
64862;BME280;62652;42.274;-71.436;2023-02-17T00:36:04;100560.0;;;11.777777777777779;100.0
64862;BME280;62652;42.274;-71.436;2023-02-17T00:37:01;100560.0;;;11.61111111111111;100.0
64862;BME280;62652;42.274;-71.436;2023-02-17T00:38:00;100560.0;;;11.500000000000002;100.0
64862;BME280;62652;42.274;-71.436;2023-02-17T00:39:01;100550.0;;;11.500000000000002;100.0
64862;BME280;62652;42.274;-71.436;2023-02-17T00:40:00;100560.0;;;11.38888888888889;100.0
64862;BME280;62652;42.274;-71.436;2023-02-17T00:41:01;100560.0;;;11.38888888888889;100.0
64862;BME280;62652;42.274;-71.436;2023-02-17T00:42:00;100550.0;;;11.500000000000002;100.0
64862;BME280;62652;42.274;-71.436;2023-02-17T00:43:00;100550.0;;;11.500000000000002;100.0
64862;BME280;62652;42.274;-71.436;2023-02-17T00:44:00;100550.0;;;11.500000000000002;100.0
64862;BME280;62652;42.274;-71.436;2023-02-17T00:45:00;100550.0;;;11.500000000000002;100.0
64862;BME280;62652;42.274;-71.436;2023-02-17T00:46:01;100550.0;;;11.500000000000002;100.0
64862;BME280;62652;42.274;-71.436;2023-02-17T00:47:01;100560.0;;;11.722222222222221;100.0
64862;BME280;62652;42.274;-71.436;2023-02-17T00:48:00;100560.0;;;11.722222222222221;100.0
64862;BME280;62652;42.274;-71.436;2023-02-17T00:49:00;100560.0;;;11.777777777777779;100.0
64862;BME280;62652;42.274;-71.436;2023-02-17T00:50:01;100570.0;;;11.777777777777779;100.0
64862;BME280;62652;42.274;-71.436;2023-02-17T00:51:01;100570.0;;;11.500000000000002;100.0
64862;BME280;62652;42.274;-71.436;2023-02-17T00:52:01;100570.0;;;11.500000000000002;100.0
64862;BME280;62652;42.274;-71.436;2023-02-17T00:53:00;100570.0;;;11.38888888888889;100.0
64862;BME280;62652;42.274;-71.436;2023-02-17T00:54:00;100580.0;;;11.38888888888889;100.0
64862;BME280;62652;42.274;-71.436;2023-02-17T00:55:01;100580.0;;;11.38888888888889;100.0
64862;BME280;62652;42.274;-71.436;2023-02-17T00:56:01;100580.0;;;11.38888888888889;100.0
64862;BME280;62652;42.274;-71.436;2023-02-17T00:57:00;100580.0;;;11.38888888888889;100.0
64862;BME280;62652;42.274;-71.436;2023-02-17T00:58:01;100580.0;;;11.277777777777777;100.0
64862;BME280;62652;42.274;-71.436;2023-02-17T00:59:00;100580.0;;;11.277777777777777;100.0
64862;BME280;62652;42.274;-71.436;2023-02-17T01:00:00;100580.0;;;11.222222222222223;100.0
64862;BME280;62652;42.274;-71.436;2023-02-17T01:01:02;100580.0;;;11.222222222222223;100.0
64862;BME280;62652;42.274;-71.436;2023-02-17T01:02:00;100580.0;;;11.222222222222223;100.0
64862;BME280;62652;42.274;-71.436;2023-02-17T01:03:00;100590.0;;;11.11111111111111;100.0
64862;BME280;62652;42.274;-71.436;2023-02-17T01:04:01;100580.0;;;11.11111111111111;100.0
64862;BME280;62652;42.274;-71.436;2023-02-17T01:05:01;100580.0;;;11.222222222222223;100.0
64862;BME280;62652;42.274;-71.436;2023-02-17T01:06:05;100580.0;;;11.11111111111111;100.0
64862;BME280;62652;42.274;-71.436;2023-02-17T01:07:01;100590.0;;;11.222222222222223;100.0
64862;BME280;62652;42.274;-71.436;2023-02-17T01:08:01;100590.0;;;11.277777777777777;100.0
64862;BME280;62652;42.274;-71.436;2023-02-17T01:09:01;100580.0;;;11.277777777777777;100.0
64862;BME280;62652;42.274;-71.436;2023-02-17T01:10:00;100590.0;;;11.222222222222223;100.0
64862;BME280;62652;42.274;-71.436;2023-02-17T01:11:01;100600.0;;;11.277777777777777;100.0
64862;BME280;62652;42.274;-71.436;2023-02-17T01:12:01;100600.0;;;11.38888888888889;100.0
64862;BME280;62652;42.274;-71.436;2023-02-17T01:13:00;100600.0;;;11.500000000000002;100.0
64862;BME280;62652;42.274;-71.436;2023-02-17T01:14:03;100600.0;;;11.38888888888889;100.0
64862;BME280;62652;42.274;-71.436;2023-02-17T01:15:01;100600.0;;;11.277777777777777;100.0
64862;BME280;62652;42.274;-71.436;2023-02-17T01:16:01;100600.0;;;11.38888888888889;100.0
64862;BME280;62652;42.274;-71.436;2023-02-17T01:17:00;100600.0;;;11.38888888888889;100.0
64862;BME280;62652;42.274;-71.436;2023-02-17T01:18:00;100600.0;;;11.38888888888889;100.0
64862;BME280;62652;42.274;-71.436;2023-02-17T01:19:01;100600.0;;;11.38888888888889;100.0
64862;BME280;62652;42.274;-71.436;2023-02-17T01:20:01;100600.0;;;11.277777777777777;100.0
64862;BME280;62652;42.274;-71.436;2023-02-17T01:21:00;100600.0;;;11.222222222222223;100.0
64862;BME280;62652;42.274;-71.436;2023-02-17T01:22:01;100590.0;;;11.222222222222223;100.0
64862;BME280;62652;42.274;-71.436;2023-02-17T01:23:01;100600.0;;;11.222222222222223;100.0
64862;BME280;62652;42.274;-71.436;2023-02-17T01:24:03;100590.0;;;11.277777777777777;100.0
64862;BME280;62652;42.274;-71.436;2023-02-17T01:25:01;100590.0;;;11.38888888888889;100.0
64862;BME280;62652;42.274;-71.436;2023-02-17T01:26:01;100590.0;;;11.277777777777777;100.0
64862;BME280;62652;42.274;-71.436;2023-02-17T01:27:01;100580.0;;;11.38888888888889;100.0
64862;BME280;62652;42.274;-71.436;2023-02-17T01:28:00;100580.0;;;11.38888888888889;100.0
64862;BME280;62652;42.274;-71.436;2023-02-17T01:29:01;100580.0;;;11.38888888888889;100.0
64862;BME280;62652;42.274;-71.436;2023-02-17T01:30:01;100580.0;;;11.38888888888889;100.0
64862;BME280;62652;42.274;-71.436;2023-02-17T01:31:04;100570.0;;;11.38888888888889;100.0
64862;BME280;62652;42.274;-71.436;2023-02-17T01:32:00;100570.0;;;11.38888888888889;100.0
64862;BME280;62652;42.274;-71.436;2023-02-17T01:33:01;100560.0;;;11.38888888888889;100.0
64862;BME280;62652;42.274;-71.436;2023-02-17T01:34:02;100560.0;;;11.38888888888889;100.0
64862;BME280;62652;42.274;-71.436;2023-02-17T01:35:00;100560.0;;;11.500000000000002;100.0
64862;BME280;62652;42.274;-71.436;2023-02-17T01:36:01;100550.0;;;11.500000000000002;100.0
64862;BME280;62652;42.274;-71.436;2023-02-17T01:37:00;100550.0;;;11.38888888888889;100.0
64862;BME280;62652;42.274;-71.436;2023-02-17T01:38:01;100540.0;;;11.500000000000002;100.0
64862;BME280;62652;42.274;-71.436;2023-02-17T01:39:01;100540.0;;;11.500000000000002;100.0
64862;BME280;62652;42.274;-71.436;2023-02-17T01:40:01;100540.0;;;11.500000000000002;100.0
64862;BME280;62652;42.274;-71.436;2023-02-17T01:41:01;100540.0;;;11.38888888888889;100.0
64862;BME280;62652;42.274;-71.436;2023-02-17T01:42:01;100540.0;;;11.38888888888889;100.0
64862;BME280;62652;42.274;-71.436;2023-02-17T01:43:01;100540.0;;;11.500000000000002;100.0
64862;BME280;62652;42.274;-71.436;2023-02-17T01:44:04;100540.0;;;11.500000000000002;100.0
64862;BME280;62652;42.274;-71.436;2023-02-17T01:46:02;100530.0;;;11.500000000000002;100.0
64862;BME280;62652;42.274;-71.436;2023-02-17T01:47:00;100540.0;;;11.38888888888889;100.0
64862;BME280;62652;42.274;-71.436;2023-02-17T01:48:05;100530.0;;;11.500000000000002;100.0
64862;BME280;62652;42.274;-71.436;2023-02-17T01:49:02;100530.0;;;11.38888888888889;100.0
64862;BME280;62652;42.274;-71.436;2023-02-17T01:50:01;100530.0;;;11.38888888888889;100.0
64862;BME280;62652;42.274;-71.436;2023-02-17T01:51:04;100530.0;;;11.38888888888889;100.0
64862;BME280;62652;42.274;-71.436;2023-02-17T01:52:03;100520.0;;;11.277777777777777;100.0
64862;BME280;62652;42.274;-71.436;2023-02-17T01:53:02;100530.0;;;11.38888888888889;100.0
64862;BME280;62652;42.274;-71.436;2023-02-17T01:54:05;100520.0;;;11.38888888888889;100.0
64862;BME280;62652;42.274;-71.436;2023-02-17T01:55:04;100520.0;;;11.500000000000002;100.0
64862;BME280;62652;42.274;-71.436;2023-02-17T01:56:02;100520.0;;;11.500000000000002;100.0
64862;BME280;62652;42.274;-71.436;2023-02-17T01:57:02;100520.0;;;11.500000000000002;100.0
64862;BME280;62652;42.274;-71.436;2023-02-17T01:58:02;100520.0;;;11.38888888888889;100.0
64862;BME280;62652;42.274;-71.436;2023-02-17T01:59:05;100520.0;;;11.277777777777777;100.0
64862;BME280;62652;42.274;-71.436;2023-02-17T02:00:02;100520.0;;;11.38888888888889;100.0
64862;BME280;62652;42.274;-71.436;2023-02-17T02:01:02;100530.0;;;11.38888888888889;100.0
64862;BME280;62652;42.274;-71.436;2023-02-17T02:02:03;100530.0;;;11.38888888888889;100.0
64862;BME280;62652;42.274;-71.436;2023-02-17T02:03:03;100530.0;;;11.38888888888889;100.0
64862;BME280;62652;42.274;-71.436;2023-02-17T02:04:02;100530.0;;;11.277777777777777;100.0
64862;BME280;62652;42.274;-71.436;2023-02-17T02:05:01;100530.0;;;11.500000000000002;100.0
64862;BME280;62652;42.274;-71.436;2023-02-17T02:06:03;100530.0;;;11.500000000000002;100.0
64862;BME280;62652;42.274;-71.436;2023-02-17T02:07:02;100530.0;;;11.38888888888889;100.0
64862;BME280;62652;42.274;-71.436;2023-02-17T02:08:00;100540.0;;;11.38888888888889;100.0
64862;BME280;62652;42.274;-71.436;2023-02-17T02:09:03;100540.0;;;11.38888888888889;100.0
64862;BME280;62652;42.274;-71.436;2023-02-17T02:10:01;100540.0;;;11.38888888888889;100.0
64862;BME280;62652;42.274;-71.436;2023-02-17T02:11:01;100530.0;;;11.38888888888889;100.0
64862;BME280;62652;42.274;-71.436;2023-02-17T02:12:01;100530.0;;;11.38888888888889;100.0
64862;BME280;62652;42.274;-71.436;2023-02-17T02:13:01;100530.0;;;11.277777777777777;100.0
64862;BME280;62652;42.274;-71.436;2023-02-17T02:14:02;100530.0;;;11.277777777777777;100.0
64862;BME280;62652;42.274;-71.436;2023-02-17T02:15:03;100530.0;;;11.277777777777777;100.0
64862;BME280;62652;42.274;-71.436;2023-02-17T02:16:06;100530.0;;;11.277777777777777;100.0
64862;BME280;62652;42.274;-71.436;2023-02-17T02:17:07;100530.0;;;11.222222222222223;100.0
64862;BME280;62652;42.274;-71.436;2023-02-17T02:18:14;100530.0;;;11.11111111111111;100.0
64862;BME280;62652;42.274;-71.436;2023-02-17T02:19:09;100520.0;;;11.11111111111111;100.0
64862;BME280;62652;42.274;-71.436;2023-02-17T02:20:17;100520.0;;;11.11111111111111;100.0
64862;BME280;62652;42.274;-71.436;2023-02-17T02:21:17;100510.0;;;11.11111111111111;100.0
64862;BME280;62652;42.274;-71.436;2023-02-17T02:23:15;100510.0;;;11.11111111111111;100.0
64862;BME280;62652;42.274;-71.436;2023-02-17T02:24:07;100510.0;;;10.999999999999998;100.0
64862;BME280;62652;42.274;-71.436;2023-02-17T02:25:11;100510.0;;;11.11111111111111;100.0
64862;BME280;62652;42.274;-71.436;2023-02-17T02:27:15;100500.0;;;11.11111111111111;100.0
64862;BME280;62652;42.274;-71.436;2023-02-17T02:28:09;100490.0;;;11.222222222222223;100.0
64862;BME280;62652;42.274;-71.436;2023-02-17T02:29:16;100500.0;;;11.222222222222223;100.0
64862;BME280;62652;42.274;-71.436;2023-02-17T02:31:08;100500.0;;;11.222222222222223;100.0
64862;BME280;62652;42.274;-71.436;2023-02-17T02:32:17;100500.0;;;11.222222222222223;100.0
64862;BME280;62652;42.274;-71.436;2023-02-17T02:33:06;100500.0;;;11.222222222222223;100.0
64862;BME280;62652;42.274;-71.436;2023-02-17T02:34:04;100490.0;;;11.277777777777777;100.0
64862;BME280;62652;42.274;-71.436;2023-02-17T02:35:06;100480.0;;;11.11111111111111;100.0
64862;BME280;62652;42.274;-71.436;2023-02-17T02:36:06;100470.0;;;11.11111111111111;100.0
64862;BME280;62652;42.274;-71.436;2023-02-17T02:37:05;100470.0;;;11.222222222222223;100.0
64862;BME280;62652;42.274;-71.436;2023-02-17T02:38:04;100460.0;;;11.222222222222223;100.0
64862;BME280;62652;42.274;-71.436;2023-02-17T02:39:06;100460.0;;;11.222222222222223;100.0
64862;BME280;62652;42.274;-71.436;2023-02-17T02:40:05;100450.0;;;11.222222222222223;100.0
64862;BME280;62652;42.274;-71.436;2023-02-17T02:41:05;100450.0;;;11.222222222222223;100.0
64862;BME280;62652;42.274;-71.436;2023-02-17T02:42:04;100450.0;;;11.222222222222223;100.0
64862;BME280;62652;42.274;-71.436;2023-02-17T02:43:02;100450.0;;;11.11111111111111;100.0
64862;BME280;62652;42.274;-71.436;2023-02-17T02:44:02;100450.0;;;11.11111111111111;100.0
64862;BME280;62652;42.274;-71.436;2023-02-17T02:45:01;100460.0;;;10.999999999999998;100.0
64862;BME280;62652;42.274;-71.436;2023-02-17T02:46:00;100460.0;;;10.999999999999998;100.0
64862;BME280;62652;42.274;-71.436;2023-02-17T02:47:05;100470.0;;;11.222222222222223;100.0
64862;BME280;62652;42.274;-71.436;2023-02-17T02:48:00;100470.0;;;11.222222222222223;100.0
64862;BME280;62652;42.274;-71.436;2023-02-17T02:49:02;100470.0;;;11.222222222222223;100.0
64862;BME280;62652;42.274;-71.436;2023-02-17T02:50:01;100470.0;;;11.222222222222223;100.0
64862;BME280;62652;42.274;-71.436;2023-02-17T02:51:11;100470.0;;;11.222222222222223;100.0
64862;BME280;62652;42.274;-71.436;2023-02-17T02:52:06;100480.0;;;11.222222222222223;100.0
64862;BME280;62652;42.274;-71.436;2023-02-17T02:53:17;100490.0;;;11.277777777777777;100.0
64862;BME280;62652;42.274;-71.436;2023-02-17T02:55:05;100500.0;;;11.38888888888889;100.0
64862;BME280;62652;42.274;-71.436;2023-02-17T02:56:07;100500.0;;;11.277777777777777;100.0
64862;BME280;62652;42.274;-71.436;2023-02-17T02:57:08;100500.0;;;11.277777777777777;100.0
64862;BME280;62652;42.274;-71.436;2023-02-17T02:58:06;100490.0;;;11.277777777777777;100.0
64862;BME280;62652;42.274;-71.436;2023-02-17T02:59:07;100490.0;;;11.222222222222223;100.0
64862;BME280;62652;42.274;-71.436;2023-02-17T03:00:09;100480.0;;;11.11111111111111;100.0
64862;BME280;62652;42.274;-71.436;2023-02-17T03:01:06;100480.0;;;11.11111111111111;100.0
64862;BME280;62652;42.274;-71.436;2023-02-17T03:02:07;100480.0;;;10.999999999999998;100.0
64862;BME280;62652;42.274;-71.436;2023-02-17T03:03:07;100490.0;;;10.999999999999998;100.0
64862;BME280;62652;42.274;-71.436;2023-02-17T03:04:07;100480.0;;;11.11111111111111;100.0
64862;BME280;62652;42.274;-71.436;2023-02-17T03:05:04;100480.0;;;11.11111111111111;100.0
64862;BME280;62652;42.274;-71.436;2023-02-17T03:06:06;100470.0;;;11.11111111111111;100.0
64862;BME280;62652;42.274;-71.436;2023-02-17T03:07:05;100460.0;;;10.999999999999998;100.0
64862;BME280;62652;42.274;-71.436;2023-02-17T03:08:03;100460.0;;;10.999999999999998;100.0
64862;BME280;62652;42.274;-71.436;2023-02-17T03:09:05;100460.0;;;10.88888888888889;100.0
64862;BME280;62652;42.274;-71.436;2023-02-17T03:10:01;100460.0;;;10.88888888888889;100.0
64862;BME280;62652;42.274;-71.436;2023-02-17T03:11:01;100460.0;;;10.722222222222221;100.0
64862;BME280;62652;42.274;-71.436;2023-02-17T03:12:01;100460.0;;;10.777777777777779;100.0
64862;BME280;62652;42.274;-71.436;2023-02-17T03:13:01;100460.0;;;10.88888888888889;100.0
64862;BME280;62652;42.274;-71.436;2023-02-17T03:14:02;100460.0;;;10.88888888888889;100.0
64862;BME280;62652;42.274;-71.436;2023-02-17T03:15:07;100460.0;;;10.88888888888889;100.0
64862;BME280;62652;42.274;-71.436;2023-02-17T03:16:00;100470.0;;;10.88888888888889;100.0
64862;BME280;62652;42.274;-71.436;2023-02-17T03:17:01;100470.0;;;10.88888888888889;100.0
64862;BME280;62652;42.274;-71.436;2023-02-17T03:18:02;100470.0;;;10.88888888888889;100.0
64862;BME280;62652;42.274;-71.436;2023-02-17T03:19:01;100460.0;;;10.777777777777779;100.0
64862;BME280;62652;42.274;-71.436;2023-02-17T03:20:03;100460.0;;;10.777777777777779;100.0
64862;BME280;62652;42.274;-71.436;2023-02-17T03:21:05;100470.0;;;10.777777777777779;100.0
64862;BME280;62652;42.274;-71.436;2023-02-17T03:22:06;100470.0;;;10.777777777777779;100.0
64862;BME280;62652;42.274;-71.436;2023-02-17T03:23:01;100470.0;;;10.88888888888889;100.0
64862;BME280;62652;42.274;-71.436;2023-02-17T03:24:01;100470.0;;;10.777777777777779;100.0
64862;BME280;62652;42.274;-71.436;2023-02-17T03:25:01;100470.0;;;10.722222222222221;100.0
64862;BME280;62652;42.274;-71.436;2023-02-17T03:26:00;100460.0;;;10.61111111111111;100.0
64862;BME280;62652;42.274;-71.436;2023-02-17T03:27:01;100460.0;;;10.722222222222221;100.0
64862;BME280;62652;42.274;-71.436;2023-02-17T03:28:00;100460.0;;;10.61111111111111;100.0
64862;BME280;62652;42.274;-71.436;2023-02-17T03:29:00;100450.0;;;10.61111111111111;100.0
64862;BME280;62652;42.274;-71.436;2023-02-17T03:30:01;100450.0;;;10.61111111111111;100.0
64862;BME280;62652;42.274;-71.436;2023-02-17T03:31:01;100440.0;;;10.5;100.0
64862;BME280;62652;42.274;-71.436;2023-02-17T03:32:01;100440.0;;;10.388888888888891;100.0
64862;BME280;62652;42.274;-71.436;2023-02-17T03:33:01;100440.0;;;10.388888888888891;100.0
64862;BME280;62652;42.274;-71.436;2023-02-17T03:34:01;100440.0;;;10.61111111111111;100.0
64862;BME280;62652;42.274;-71.436;2023-02-17T03:35:01;100430.0;;;10.61111111111111;100.0
64862;BME280;62652;42.274;-71.436;2023-02-17T03:36:00;100430.0;;;10.61111111111111;100.0
64862;BME280;62652;42.274;-71.436;2023-02-17T03:37:00;100420.0;;;10.5;100.0
64862;BME280;62652;42.274;-71.436;2023-02-17T03:38:00;100420.0;;;10.61111111111111;100.0
64862;BME280;62652;42.274;-71.436;2023-02-17T03:39:01;100420.0;;;10.61111111111111;100.0
64862;BME280;62652;42.274;-71.436;2023-02-17T03:40:01;100420.0;;;10.5;100.0
64862;BME280;62652;42.274;-71.436;2023-02-17T03:41:01;100420.0;;;10.61111111111111;100.0
64862;BME280;62652;42.274;-71.436;2023-02-17T03:42:01;100430.0;;;10.722222222222221;100.0
64862;BME280;62652;42.274;-71.436;2023-02-17T03:43:00;100430.0;;;10.722222222222221;100.0
64862;BME280;62652;42.274;-71.436;2023-02-17T03:44:00;100420.0;;;10.722222222222221;100.0
64862;BME280;62652;42.274;-71.436;2023-02-17T03:45:00;100420.0;;;10.722222222222221;100.0
64862;BME280;62652;42.274;-71.436;2023-02-17T03:46:01;100410.0;;;10.722222222222221;100.0
64862;BME280;62652;42.274;-71.436;2023-02-17T03:47:01;100410.0;;;10.61111111111111;100.0
64862;BME280;62652;42.274;-71.436;2023-02-17T03:48:00;100410.0;;;10.388888888888891;100.0
64862;BME280;62652;42.274;-71.436;2023-02-17T03:49:01;100410.0;;;10.388888888888891;100.0
64862;BME280;62652;42.274;-71.436;2023-02-17T03:50:01;100400.0;;;10.277777777777779;100.0
64862;BME280;62652;42.274;-71.436;2023-02-17T03:51:09;100400.0;;;10.388888888888891;100.0
64862;BME280;62652;42.274;-71.436;2023-02-17T03:52:00;100400.0;;;10.388888888888891;100.0
64862;BME280;62652;42.274;-71.436;2023-02-17T03:53:00;100390.0;;;10.388888888888891;100.0
64862;BME280;62652;42.274;-71.436;2023-02-17T03:54:01;100400.0;;;10.277777777777779;100.0
64862;BME280;62652;42.274;-71.436;2023-02-17T03:55:00;100390.0;;;10.277777777777779;100.0
64862;BME280;62652;42.274;-71.436;2023-02-17T03:56:00;100380.0;;;10.388888888888891;100.0
64862;BME280;62652;42.274;-71.436;2023-02-17T03:57:01;100380.0;;;10.388888888888891;100.0
64862;BME280;62652;42.274;-71.436;2023-02-17T03:58:01;100380.0;;;10.277777777777779;100.0
64862;BME280;62652;42.274;-71.436;2023-02-17T03:59:01;100390.0;;;10.388888888888891;100.0
64862;BME280;62652;42.274;-71.436;2023-02-17T04:00:01;100390.0;;;10.61111111111111;100.0
64862;BME280;62652;42.274;-71.436;2023-02-17T04:01:01;100390.0;;;10.61111111111111;100.0
64862;BME280;62652;42.274;-71.436;2023-02-17T04:02:01;100390.0;;;10.5;100.0
64862;BME280;62652;42.274;-71.436;2023-02-17T04:03:00;100390.0;;;10.5;100.0
64862;BME280;62652;42.274;-71.436;2023-02-17T04:04:01;100390.0;;;10.5;100.0
64862;BME280;62652;42.274;-71.436;2023-02-17T04:05:01;100390.0;;;10.5;100.0
64862;BME280;62652;42.274;-71.436;2023-02-17T04:06:01;100390.0;;;10.5;100.0
64862;BME280;62652;42.274;-71.436;2023-02-17T04:07:01;100390.0;;;10.388888888888891;100.0
64862;BME280;62652;42.274;-71.436;2023-02-17T04:08:01;100380.0;;;10.277777777777779;100.0
64862;BME280;62652;42.274;-71.436;2023-02-17T04:09:01;100380.0;;;10.388888888888891;100.0
64862;BME280;62652;42.274;-71.436;2023-02-17T04:10:00;100380.0;;;10.388888888888891;100.0
64862;BME280;62652;42.274;-71.436;2023-02-17T04:11:02;100390.0;;;10.61111111111111;100.0
64862;BME280;62652;42.274;-71.436;2023-02-17T04:12:00;100390.0;;;10.61111111111111;100.0
64862;BME280;62652;42.274;-71.436;2023-02-17T04:13:00;100390.0;;;10.61111111111111;100.0
64862;BME280;62652;42.274;-71.436;2023-02-17T04:14:01;100390.0;;;10.61111111111111;100.0
64862;BME280;62652;42.274;-71.436;2023-02-17T04:15:00;100390.0;;;10.5;100.0
64862;BME280;62652;42.274;-71.436;2023-02-17T04:16:01;100390.0;;;10.5;100.0
64862;BME280;62652;42.274;-71.436;2023-02-17T04:17:00;100390.0;;;10.5;100.0
64862;BME280;62652;42.274;-71.436;2023-02-17T04:18:00;100390.0;;;10.388888888888891;100.0
64862;BME280;62652;42.274;-71.436;2023-02-17T04:19:01;100390.0;;;10.388888888888891;100.0
64862;BME280;62652;42.274;-71.436;2023-02-17T04:20:01;100390.0;;;10.388888888888891;100.0
64862;BME280;62652;42.274;-71.436;2023-02-17T04:21:01;100380.0;;;10.388888888888891;100.0
64862;BME280;62652;42.274;-71.436;2023-02-17T04:22:01;100380.0;;;10.277777777777779;100.0
64862;BME280;62652;42.274;-71.436;2023-02-17T04:23:01;100370.0;;;10.222222222222221;100.0
64862;BME280;62652;42.274;-71.436;2023-02-17T04:24:02;100360.0;;;10.277777777777779;100.0
64862;BME280;62652;42.274;-71.436;2023-02-17T04:25:00;100350.0;;;10.277777777777779;100.0
64862;BME280;62652;42.274;-71.436;2023-02-17T04:26:01;100340.0;;;10.388888888888891;100.0
64862;BME280;62652;42.274;-71.436;2023-02-17T04:27:01;100330.0;;;10.388888888888891;100.0
64862;BME280;62652;42.274;-71.436;2023-02-17T04:28:00;100320.0;;;10.388888888888891;100.0
64862;BME280;62652;42.274;-71.436;2023-02-17T04:29:03;100320.0;;;10.388888888888891;100.0
64862;BME280;62652;42.274;-71.436;2023-02-17T04:30:01;100330.0;;;10.5;100.0
64862;BME280;62652;42.274;-71.436;2023-02-17T04:31:00;100340.0;;;10.5;100.0
64862;BME280;62652;42.274;-71.436;2023-02-17T04:32:01;100340.0;;;10.5;100.0
64862;BME280;62652;42.274;-71.436;2023-02-17T04:33:01;100350.0;;;10.61111111111111;100.0